sensor_id;sensor_type;location;lat;lon;timestamp;temperature;humidity
13470;DHT22;6807;48.682;9.032;2022-11-06T00:02:00;2.20;1.00
13470;DHT22;6807;48.682;9.032;2022-11-06T00:04:31;2.10;1.00
13470;DHT22;6807;48.682;9.032;2022-11-06T00:06:57;2.20;99.90
13470;DHT22;6807;48.682;9.032;2022-11-06T00:11:51;2.10;1.00
13470;DHT22;6807;48.682;9.032;2022-11-06T00:14:19;2.20;1.00
13470;DHT22;6807;48.682;9.032;2022-11-06T00:16:47;2.10;1.00
13470;DHT22;6807;48.682;9.032;2022-11-06T00:19:18;2.10;1.00
13470;DHT22;6807;48.682;9.032;2022-11-06T00:21:45;2.10;1.00
13470;DHT22;6807;48.682;9.032;2022-11-06T00:24:14;2.30;1.00
13470;DHT22;6807;48.682;9.032;2022-11-06T00:26:42;2.40;1.00
13470;DHT22;6807;48.682;9.032;2022-11-06T00:29:13;2.00;1.00
13470;DHT22;6807;48.682;9.032;2022-11-06T00:31:44;2.50;1.00
13470;DHT22;6807;48.682;9.032;2022-11-06T00:34:11;2.10;1.00
13470;DHT22;6807;48.682;9.032;2022-11-06T00:36:40;2.00;1.00
13470;DHT22;6807;48.682;9.032;2022-11-06T00:39:10;1.90;1.00
13470;DHT22;6807;48.682;9.032;2022-11-06T00:41:37;1.70;1.00
13470;DHT22;6807;48.682;9.032;2022-11-06T00:44:08;1.60;1.00
13470;DHT22;6807;48.682;9.032;2022-11-06T00:46:36;1.60;1.00
13470;DHT22;6807;48.682;9.032;2022-11-06T00:51:36;1.70;1.00
13470;DHT22;6807;48.682;9.032;2022-11-06T00:54:08;1.60;1.00
13470;DHT22;6807;48.682;9.032;2022-11-06T00:56:37;2.60;1.00
13470;DHT22;6807;48.682;9.032;2022-11-06T00:59:14;1.90;1.00
13470;DHT22;6807;48.682;9.032;2022-11-06T01:01:49;1.90;1.00
13470;DHT22;6807;48.682;9.032;2022-11-06T01:04:19;1.80;1.00
13470;DHT22;6807;48.682;9.032;2022-11-06T01:06:48;1.60;1.00
13470;DHT22;6807;48.682;9.032;2022-11-06T01:09:19;1.60;1.00
13470;DHT22;6807;48.682;9.032;2022-11-06T01:11:51;1.50;1.00
13470;DHT22;6807;48.682;9.032;2022-11-06T01:14:23;1.40;1.00
13470;DHT22;6807;48.682;9.032;2022-11-06T01:16:51;1.40;1.00
13470;DHT22;6807;48.682;9.032;2022-11-06T01:19:18;1.40;1.00
13470;DHT22;6807;48.682;9.032;2022-11-06T01:21:50;1.60;1.00
13470;DHT22;6807;48.682;9.032;2022-11-06T01:24:23;1.50;1.00
13470;DHT22;6807;48.682;9.032;2022-11-06T01:26:52;1.40;1.00
13470;DHT22;6807;48.682;9.032;2022-11-06T01:29:20;1.30;1.00
13470;DHT22;6807;48.682;9.032;2022-11-06T01:31:48;1.30;1.00
13470;DHT22;6807;48.682;9.032;2022-11-06T01:34:16;1.30;1.00
13470;DHT22;6807;48.682;9.032;2022-11-06T01:36:43;1.20;1.00
13470;DHT22;6807;48.682;9.032;2022-11-06T01:39:15;1.30;1.00
13470;DHT22;6807;48.682;9.032;2022-11-06T01:41:45;1.30;1.00
13470;DHT22;6807;48.682;9.032;2022-11-06T01:47:20;1.30;1.00
13470;DHT22;6807;48.682;9.032;2022-11-06T01:49:48;1.20;1.00
13470;DHT22;6807;48.682;9.032;2022-11-06T01:52:17;1.10;1.00
13470;DHT22;6807;48.682;9.032;2022-11-06T01:54:47;1.00;1.00
13470;DHT22;6807;48.682;9.032;2022-11-06T01:57:16;1.00;1.00
13470;DHT22;6807;48.682;9.032;2022-11-06T01:59:44;0.90;1.00
13470;DHT22;6807;48.682;9.032;2022-11-06T02:02:13;0.90;1.00
13470;DHT22;6807;48.682;9.032;2022-11-06T02:04:44;0.90;1.00
13470;DHT22;6807;48.682;9.032;2022-11-06T02:07:13;0.90;1.00
13470;DHT22;6807;48.682;9.032;2022-11-06T02:09:40;0.90;1.00
13470;DHT22;6807;48.682;9.032;2022-11-06T02:12:13;0.90;1.00
13470;DHT22;6807;48.682;9.032;2022-11-06T02:14:50;1.00;1.00
13470;DHT22;6807;48.682;9.032;2022-11-06T02:17:28;1.00;1.00
13470;DHT22;6807;48.682;9.032;2022-11-06T02:20:05;0.80;1.00
13470;DHT22;6807;48.682;9.032;2022-11-06T02:22:46;0.80;1.00
13470;DHT22;6807;48.682;9.032;2022-11-06T02:25:26;0.70;1.00
13470;DHT22;6807;48.682;9.032;2022-11-06T02:28:00;0.70;1.00
13470;DHT22;6807;48.682;9.032;2022-11-06T02:30:31;0.70;1.00
13470;DHT22;6807;48.682;9.032;2022-11-06T02:33:03;1.00;1.00
13470;DHT22;6807;48.682;9.032;2022-11-06T02:35:37;1.10;1.00
13470;DHT22;6807;48.682;9.032;2022-11-06T02:38:07;1.00;1.00
13470;DHT22;6807;48.682;9.032;2022-11-06T02:40:38;0.90;1.00
13470;DHT22;6807;48.682;9.032;2022-11-06T02:43:08;0.70;1.00
13470;DHT22;6807;48.682;9.032;2022-11-06T02:45:39;0.70;1.00
13470;DHT22;6807;48.682;9.032;2022-11-06T02:48:09;0.80;1.00
13470;DHT22;6807;48.682;9.032;2022-11-06T02:50:41;0.80;1.00
13470;DHT22;6807;48.682;9.032;2022-11-06T02:53:10;0.80;1.00
13470;DHT22;6807;48.682;9.032;2022-11-06T02:55:42;2.30;1.00
13470;DHT22;6807;48.682;9.032;2022-11-06T02:58:15;2.00;1.00
13470;DHT22;6807;48.682;9.032;2022-11-06T03:00:47;0.70;1.00
13470;DHT22;6807;48.682;9.032;2022-11-06T03:03:19;0.70;1.00
13470;DHT22;6807;48.682;9.032;2022-11-06T03:05:52;0.80;1.00
13470;DHT22;6807;48.682;9.032;2022-11-06T03:08:25;0.90;1.00
13470;DHT22;6807;48.682;9.032;2022-11-06T03:11:00;1.20;1.00
13470;DHT22;6807;48.682;9.032;2022-11-06T03:13:38;1.20;1.00
13470;DHT22;6807;48.682;9.032;2022-11-06T03:16:15;1.10;1.00
13470;DHT22;6807;48.682;9.032;2022-11-06T03:18:53;1.00;1.00
13470;DHT22;6807;48.682;9.032;2022-11-06T03:21:25;0.90;1.00
13470;DHT22;6807;48.682;9.032;2022-11-06T03:23:58;0.80;1.00
13470;DHT22;6807;48.682;9.032;2022-11-06T03:26:32;0.80;1.00
13470;DHT22;6807;48.682;9.032;2022-11-06T03:29:08;0.80;1.00
13470;DHT22;6807;48.682;9.032;2022-11-06T03:31:38;0.70;1.00
13470;DHT22;6807;48.682;9.032;2022-11-06T03:34:08;0.60;1.00
13470;DHT22;6807;48.682;9.032;2022-11-06T03:36:40;0.60;1.00
13470;DHT22;6807;48.682;9.032;2022-11-06T03:39:13;0.60;1.00
13470;DHT22;6807;48.682;9.032;2022-11-06T03:41:43;0.60;1.00
13470;DHT22;6807;48.682;9.032;2022-11-06T03:44:17;0.60;1.00
13470;DHT22;6807;48.682;9.032;2022-11-06T03:46:48;0.70;1.00
13470;DHT22;6807;48.682;9.032;2022-11-06T03:49:19;0.60;1.00
13470;DHT22;6807;48.682;9.032;2022-11-06T03:51:51;0.70;1.00
13470;DHT22;6807;48.682;9.032;2022-11-06T03:54:24;0.60;1.00
13470;DHT22;6807;48.682;9.032;2022-11-06T03:56:55;0.50;1.00
13470;DHT22;6807;48.682;9.032;2022-11-06T03:59:26;0.40;1.00
13470;DHT22;6807;48.682;9.032;2022-11-06T04:01:54;0.50;1.00
13470;DHT22;6807;48.682;9.032;2022-11-06T04:04:26;0.50;1.00
13470;DHT22;6807;48.682;9.032;2022-11-06T04:06:57;0.40;1.00
13470;DHT22;6807;48.682;9.032;2022-11-06T04:09:28;0.40;1.00
13470;DHT22;6807;48.682;9.032;2022-11-06T04:12:16;0.50;99.90
13470;DHT22;6807;48.682;9.032;2022-11-06T04:15:04;0.50;1.00
13470;DHT22;6807;48.682;9.032;2022-11-06T04:17:32;0.50;99.90
13470;DHT22;6807;48.682;9.032;2022-11-06T04:20:04;0.60;1.00
13470;DHT22;6807;48.682;9.032;2022-11-06T04:22:43;0.70;1.00
13470;DHT22;6807;48.682;9.032;2022-11-06T04:25:20;0.70;1.00
13470;DHT22;6807;48.682;9.032;2022-11-06T04:28:19;0.50;1.00
13470;DHT22;6807;48.682;9.032;2022-11-06T04:30:58;0.40;1.00
13470;DHT22;6807;48.682;9.032;2022-11-06T04:33:32;0.30;1.00
13470;DHT22;6807;48.682;9.032;2022-11-06T04:36:04;0.30;1.00
13470;DHT22;6807;48.682;9.032;2022-11-06T04:38:40;0.30;99.90
13470;DHT22;6807;48.682;9.032;2022-11-06T04:41:13;0.30;1.00
13470;DHT22;6807;48.682;9.032;2022-11-06T04:43:47;0.40;1.00
13470;DHT22;6807;48.682;9.032;2022-11-06T04:46:19;0.30;1.00
13470;DHT22;6807;48.682;9.032;2022-11-06T04:48:47;0.30;99.90
13470;DHT22;6807;48.682;9.032;2022-11-06T04:51:18;0.50;1.00
13470;DHT22;6807;48.682;9.032;2022-11-06T04:53:48;0.70;1.00
13470;DHT22;6807;48.682;9.032;2022-11-06T04:56:21;0.60;1.00
13470;DHT22;6807;48.682;9.032;2022-11-06T04:58:48;0.50;1.00
13470;DHT22;6807;48.682;9.032;2022-11-06T05:01:17;0.30;99.90
13470;DHT22;6807;48.682;9.032;2022-11-06T05:03:43;0.20;99.90
13470;DHT22;6807;48.682;9.032;2022-11-06T05:06:10;0.10;99.90
13470;DHT22;6807;48.682;9.032;2022-11-06T05:08:38;0.10;1.00
13470;DHT22;6807;48.682;9.032;2022-11-06T05:11:05;0.10;99.90
13470;DHT22;6807;48.682;9.032;2022-11-06T05:13:32;0.10;1.00
13470;DHT22;6807;48.682;9.032;2022-11-06T05:15:59;0.10;99.90
13470;DHT22;6807;48.682;9.032;2022-11-06T05:18:27;0.00;99.90
13470;DHT22;6807;48.682;9.032;2022-11-06T05:20:58;0.00;99.90
13470;DHT22;6807;48.682;9.032;2022-11-06T05:23:39;-0.20;99.90
13470;DHT22;6807;48.682;9.032;2022-11-06T05:26:07;-0.10;99.90
13470;DHT22;6807;48.682;9.032;2022-11-06T05:28:34;-0.20;99.90
13470;DHT22;6807;48.682;9.032;2022-11-06T05:31:01;0.10;99.90
13470;DHT22;6807;48.682;9.032;2022-11-06T05:33:29;0.10;1.00
13470;DHT22;6807;48.682;9.032;2022-11-06T05:36:00;0.00;1.00
13470;DHT22;6807;48.682;9.032;2022-11-06T05:38:27;-0.10;99.90
13470;DHT22;6807;48.682;9.032;2022-11-06T05:40:54;-0.20;99.90
13470;DHT22;6807;48.682;9.032;2022-11-06T05:43:20;-0.20;99.90
13470;DHT22;6807;48.682;9.032;2022-11-06T05:45:47;-0.20;99.90
13470;DHT22;6807;48.682;9.032;2022-11-06T05:48:14;-0.20;99.90
13470;DHT22;6807;48.682;9.032;2022-11-06T05:50:42;-0.40;99.90
13470;DHT22;6807;48.682;9.032;2022-11-06T05:53:09;-0.40;1.00
13470;DHT22;6807;48.682;9.032;2022-11-06T05:55:36;-0.40;1.00
13470;DHT22;6807;48.682;9.032;2022-11-06T05:58:03;-0.50;99.90
13470;DHT22;6807;48.682;9.032;2022-11-06T06:00:29;-0.60;99.90
13470;DHT22;6807;48.682;9.032;2022-11-06T06:02:56;-0.60;99.90
13470;DHT22;6807;48.682;9.032;2022-11-06T06:05:23;-0.60;99.90
13470;DHT22;6807;48.682;9.032;2022-11-06T06:07:51;-0.40;99.90
13470;DHT22;6807;48.682;9.032;2022-11-06T06:10:18;-0.50;99.90
13470;DHT22;6807;48.682;9.032;2022-11-06T06:12:45;-0.50;1.00
13470;DHT22;6807;48.682;9.032;2022-11-06T06:15:11;-0.50;99.90
13470;DHT22;6807;48.682;9.032;2022-11-06T06:17:39;-0.60;1.00
13470;DHT22;6807;48.682;9.032;2022-11-06T06:20:07;-0.60;99.90
13470;DHT22;6807;48.682;9.032;2022-11-06T06:22:35;-0.60;99.90
13470;DHT22;6807;48.682;9.032;2022-11-06T06:25:05;-0.40;99.90
13470;DHT22;6807;48.682;9.032;2022-11-06T06:27:36;-0.20;1.00
13470;DHT22;6807;48.682;9.032;2022-11-06T06:30:04;-0.10;1.00
13470;DHT22;6807;48.682;9.032;2022-11-06T06:32:32;-0.10;1.00
13470;DHT22;6807;48.682;9.032;2022-11-06T06:34:59;2.10;1.00
13470;DHT22;6807;48.682;9.032;2022-11-06T06:37:26;0.10;1.00
13470;DHT22;6807;48.682;9.032;2022-11-06T06:39:52;0.10;1.00
13470;DHT22;6807;48.682;9.032;2022-11-06T06:42:21;0.10;1.00
13470;DHT22;6807;48.682;9.032;2022-11-06T06:44:47;0.90;1.00
13470;DHT22;6807;48.682;9.032;2022-11-06T06:47:14;1.00;1.00
13470;DHT22;6807;48.682;9.032;2022-11-06T06:49:42;0.30;1.00
13470;DHT22;6807;48.682;9.032;2022-11-06T06:52:09;0.40;1.00
13470;DHT22;6807;48.682;9.032;2022-11-06T06:54:36;0.60;1.00
13470;DHT22;6807;48.682;9.032;2022-11-06T06:57:05;0.70;1.00
13470;DHT22;6807;48.682;9.032;2022-11-06T06:59:34;0.70;1.00
13470;DHT22;6807;48.682;9.032;2022-11-06T07:02:01;0.80;1.00
13470;DHT22;6807;48.682;9.032;2022-11-06T07:04:27;0.80;1.00
13470;DHT22;6807;48.682;9.032;2022-11-06T07:06:55;0.90;1.00
13470;DHT22;6807;48.682;9.032;2022-11-06T07:09:22;1.00;1.00
13470;DHT22;6807;48.682;9.032;2022-11-06T07:11:49;1.20;1.00
13470;DHT22;6807;48.682;9.032;2022-11-06T07:14:15;1.30;1.00
13470;DHT22;6807;48.682;9.032;2022-11-06T07:16:44;1.40;1.00
13470;DHT22;6807;48.682;9.032;2022-11-06T07:19:10;1.50;1.00
13470;DHT22;6807;48.682;9.032;2022-11-06T07:21:37;2.20;1.00
13470;DHT22;6807;48.682;9.032;2022-11-06T07:24:04;1.80;1.00
13470;DHT22;6807;48.682;9.032;2022-11-06T08:33:02;4.50;99.90
13470;DHT22;6807;48.682;9.032;2022-11-06T09:42:18;13.10;1.00
13470;DHT22;6807;48.682;9.032;2022-11-06T09:44:56;14.30;1.00
13470;DHT22;6807;48.682;9.032;2022-11-06T09:47:28;14.00;1.00
13470;DHT22;6807;48.682;9.032;2022-11-06T09:49:58;14.60;99.90
13470;DHT22;6807;48.682;9.032;2022-11-06T09:52:32;15.10;99.90
13470;DHT22;6807;48.682;9.032;2022-11-06T09:55:01;15.70;1.00
13470;DHT22;6807;48.682;9.032;2022-11-06T09:57:34;15.50;1.00
13470;DHT22;6807;48.682;9.032;2022-11-06T10:00:06;15.10;1.00
13470;DHT22;6807;48.682;9.032;2022-11-06T10:02:36;15.90;1.00
13470;DHT22;6807;48.682;9.032;2022-11-06T10:05:21;16.50;1.00
13470;DHT22;6807;48.682;9.032;2022-11-06T10:07:50;15.20;1.00
13470;DHT22;6807;48.682;9.032;2022-11-06T10:10:20;15.00;1.00
13470;DHT22;6807;48.682;9.032;2022-11-06T10:13:03;14.40;1.00
13470;DHT22;6807;48.682;9.032;2022-11-06T10:15:35;13.30;99.90
13470;DHT22;6807;48.682;9.032;2022-11-06T10:18:10;13.20;99.90
13470;DHT22;6807;48.682;9.032;2022-11-06T10:20:44;14.80;1.00
13470;DHT22;6807;48.682;9.032;2022-11-06T10:23:19;14.60;1.00
13470;DHT22;6807;48.682;9.032;2022-11-06T10:26:00;14.90;1.00
13470;DHT22;6807;48.682;9.032;2022-11-06T10:28:44;14.60;99.90
13470;DHT22;6807;48.682;9.032;2022-11-06T10:31:23;14.10;99.90
13470;DHT22;6807;48.682;9.032;2022-11-06T10:33:56;14.20;1.00
13470;DHT22;6807;48.682;9.032;2022-11-06T10:36:29;14.50;1.00
13470;DHT22;6807;48.682;9.032;2022-11-06T10:38:58;14.50;1.00
13470;DHT22;6807;48.682;9.032;2022-11-06T10:41:29;14.60;1.00
13470;DHT22;6807;48.682;9.032;2022-11-06T10:44:01;14.30;1.00
13470;DHT22;6807;48.682;9.032;2022-11-06T10:46:35;14.30;1.00
13470;DHT22;6807;48.682;9.032;2022-11-06T10:49:14;14.50;1.00
13470;DHT22;6807;48.682;9.032;2022-11-06T10:52:04;14.50;1.00
13470;DHT22;6807;48.682;9.032;2022-11-06T10:54:45;14.00;1.00
13470;DHT22;6807;48.682;9.032;2022-11-06T10:57:25;13.30;1.00
13470;DHT22;6807;48.682;9.032;2022-11-06T10:59:54;13.40;1.00
13470;DHT22;6807;48.682;9.032;2022-11-06T11:02:28;13.20;1.00
13470;DHT22;6807;48.682;9.032;2022-11-06T11:04:59;12.70;99.90
13470;DHT22;6807;48.682;9.032;2022-11-06T11:07:30;12.50;99.90
13470;DHT22;6807;48.682;9.032;2022-11-06T11:10:25;13.10;1.00
13470;DHT22;6807;48.682;9.032;2022-11-06T11:12:53;13.60;1.00
13470;DHT22;6807;48.682;9.032;2022-11-06T11:15:22;13.60;1.00
13470;DHT22;6807;48.682;9.032;2022-11-06T11:18:08;13.50;99.90
13470;DHT22;6807;48.682;9.032;2022-11-06T11:20:37;15.00;1.00
13470;DHT22;6807;48.682;9.032;2022-11-06T11:23:13;14.20;1.00
13470;DHT22;6807;48.682;9.032;2022-11-06T11:25:44;13.90;1.00
13470;DHT22;6807;48.682;9.032;2022-11-06T11:28:21;14.50;1.00
13470;DHT22;6807;48.682;9.032;2022-11-06T11:30:52;16.20;1.00
13470;DHT22;6807;48.682;9.032;2022-11-06T11:33:24;16.00;1.00
13470;DHT22;6807;48.682;9.032;2022-11-06T11:35:52;16.70;1.00
13470;DHT22;6807;48.682;9.032;2022-11-06T11:38:21;15.60;1.00
13470;DHT22;6807;48.682;9.032;2022-11-06T11:40:51;14.70;1.00
13470;DHT22;6807;48.682;9.032;2022-11-06T11:43:30;14.30;1.00
13470;DHT22;6807;48.682;9.032;2022-11-06T11:48:48;14.70;1.00
13470;DHT22;6807;48.682;9.032;2022-11-06T11:51:28;14.80;1.00
13470;DHT22;6807;48.682;9.032;2022-11-06T11:54:05;14.60;1.00
13470;DHT22;6807;48.682;9.032;2022-11-06T11:56:33;15.80;1.00
13470;DHT22;6807;48.682;9.032;2022-11-06T11:59:01;15.80;1.00
13470;DHT22;6807;48.682;9.032;2022-11-06T12:01:35;15.50;1.00
13470;DHT22;6807;48.682;9.032;2022-11-06T12:04:16;15.00;99.90
13470;DHT22;6807;48.682;9.032;2022-11-06T12:06:53;16.00;99.90
13470;DHT22;6807;48.682;9.032;2022-11-06T12:09:22;16.00;99.90
13470;DHT22;6807;48.682;9.032;2022-11-06T12:11:51;16.10;99.90
13470;DHT22;6807;48.682;9.032;2022-11-06T12:14:28;15.30;99.90
13470;DHT22;6807;48.682;9.032;2022-11-06T12:17:03;15.80;99.90
13470;DHT22;6807;48.682;9.032;2022-11-06T12:19:33;15.30;99.90
13470;DHT22;6807;48.682;9.032;2022-11-06T12:22:05;15.20;99.90
13470;DHT22;6807;48.682;9.032;2022-11-06T12:24:38;15.20;99.90
13470;DHT22;6807;48.682;9.032;2022-11-06T12:27:12;14.70;99.90
13470;DHT22;6807;48.682;9.032;2022-11-06T12:29:45;14.80;99.90
13470;DHT22;6807;48.682;9.032;2022-11-06T12:32:25;13.80;99.90
13470;DHT22;6807;48.682;9.032;2022-11-06T12:35:04;13.20;99.90
13470;DHT22;6807;48.682;9.032;2022-11-06T12:37:41;12.80;99.90
13470;DHT22;6807;48.682;9.032;2022-11-06T12:40:17;12.50;99.90
13470;DHT22;6807;48.682;9.032;2022-11-06T12:42:53;13.00;99.90
13470;DHT22;6807;48.682;9.032;2022-11-06T12:45:28;12.60;99.90
13470;DHT22;6807;48.682;9.032;2022-11-06T12:48:04;12.40;99.90
13470;DHT22;6807;48.682;9.032;2022-11-06T12:50:36;13.30;99.90
13470;DHT22;6807;48.682;9.032;2022-11-06T12:53:15;13.80;99.90
13470;DHT22;6807;48.682;9.032;2022-11-06T12:55:51;14.10;99.90
13470;DHT22;6807;48.682;9.032;2022-11-06T12:58:54;14.00;99.90
13470;DHT22;6807;48.682;9.032;2022-11-06T13:01:32;13.90;99.90
13470;DHT22;6807;48.682;9.032;2022-11-06T13:04:20;13.90;99.90
13470;DHT22;6807;48.682;9.032;2022-11-06T13:07:06;13.40;99.90
13470;DHT22;6807;48.682;9.032;2022-11-06T13:09:39;13.10;99.90
13470;DHT22;6807;48.682;9.032;2022-11-06T13:12:17;12.90;99.90
13470;DHT22;6807;48.682;9.032;2022-11-06T13:14:53;12.90;99.90
13470;DHT22;6807;48.682;9.032;2022-11-06T13:17:26;12.60;99.90
13470;DHT22;6807;48.682;9.032;2022-11-06T13:19:58;12.30;99.90
13470;DHT22;6807;48.682;9.032;2022-11-06T13:22:29;12.30;99.90
13470;DHT22;6807;48.682;9.032;2022-11-06T13:25:06;12.20;99.90
13470;DHT22;6807;48.682;9.032;2022-11-06T13:27:42;11.70;99.90
13470;DHT22;6807;48.682;9.032;2022-11-06T13:30:17;11.70;99.90
13470;DHT22;6807;48.682;9.032;2022-11-06T13:32:56;11.50;99.90
13470;DHT22;6807;48.682;9.032;2022-11-06T13:35:24;11.30;99.90
13470;DHT22;6807;48.682;9.032;2022-11-06T13:37:53;11.20;99.90
13470;DHT22;6807;48.682;9.032;2022-11-06T13:40:28;11.10;99.90
13470;DHT22;6807;48.682;9.032;2022-11-06T13:43:01;11.10;99.90
13470;DHT22;6807;48.682;9.032;2022-11-06T13:45:32;11.00;99.90
13470;DHT22;6807;48.682;9.032;2022-11-06T13:48:13;10.90;99.90
13470;DHT22;6807;48.682;9.032;2022-11-06T13:50:48;10.80;99.90
13470;DHT22;6807;48.682;9.032;2022-11-06T13:53:22;10.90;99.90
13470;DHT22;6807;48.682;9.032;2022-11-06T13:56:03;10.90;99.90
13470;DHT22;6807;48.682;9.032;2022-11-06T13:58:51;10.80;99.90
13470;DHT22;6807;48.682;9.032;2022-11-06T14:01:32;10.70;99.90
13470;DHT22;6807;48.682;9.032;2022-11-06T14:13:15;10.50;99.90
13470;DHT22;6807;48.682;9.032;2022-11-06T14:15:45;10.50;99.90
13470;DHT22;6807;48.682;9.032;2022-11-06T14:18:20;10.40;99.90
13470;DHT22;6807;48.682;9.032;2022-11-06T14:20:48;10.40;99.90
13470;DHT22;6807;48.682;9.032;2022-11-06T14:23:44;10.40;99.90
13470;DHT22;6807;48.682;9.032;2022-11-06T14:26:12;10.30;99.90
13470;DHT22;6807;48.682;9.032;2022-11-06T14:28:40;10.30;99.90
13470;DHT22;6807;48.682;9.032;2022-11-06T14:31:08;10.20;99.90
13470;DHT22;6807;48.682;9.032;2022-11-06T14:33:58;10.20;99.90
13470;DHT22;6807;48.682;9.032;2022-11-06T14:36:27;10.10;99.90
13470;DHT22;6807;48.682;9.032;2022-11-06T14:38:55;10.10;99.90
13470;DHT22;6807;48.682;9.032;2022-11-06T14:41:52;10.00;99.90
13470;DHT22;6807;48.682;9.032;2022-11-06T14:44:38;10.00;99.90
13470;DHT22;6807;48.682;9.032;2022-11-06T14:47:25;9.90;99.90
13470;DHT22;6807;48.682;9.032;2022-11-06T14:49:55;9.90;99.90
13470;DHT22;6807;48.682;9.032;2022-11-06T14:52:24;9.80;99.90
13470;DHT22;6807;48.682;9.032;2022-11-06T14:54:54;9.80;99.90
13470;DHT22;6807;48.682;9.032;2022-11-06T14:57:39;9.80;99.90
13470;DHT22;6807;48.682;9.032;2022-11-06T15:00:44;9.80;99.90
13470;DHT22;6807;48.682;9.032;2022-11-06T15:03:25;9.80;99.90
13470;DHT22;6807;48.682;9.032;2022-11-06T15:05:58;9.70;99.90
13470;DHT22;6807;48.682;9.032;2022-11-06T15:08:55;9.70;99.90
13470;DHT22;6807;48.682;9.032;2022-11-06T15:11:52;9.70;99.90
13470;DHT22;6807;48.682;9.032;2022-11-06T15:14:54;9.60;99.90
13470;DHT22;6807;48.682;9.032;2022-11-06T15:17:23;9.50;99.90
13470;DHT22;6807;48.682;9.032;2022-11-06T15:19:59;9.40;99.90
13470;DHT22;6807;48.682;9.032;2022-11-06T15:22:31;9.30;99.90
13470;DHT22;6807;48.682;9.032;2022-11-06T15:25:05;9.20;99.90
13470;DHT22;6807;48.682;9.032;2022-11-06T15:27:40;9.00;99.90
13470;DHT22;6807;48.682;9.032;2022-11-06T15:30:13;8.90;99.90
13470;DHT22;6807;48.682;9.032;2022-11-06T15:32:40;8.70;99.90
13470;DHT22;6807;48.682;9.032;2022-11-06T15:35:14;8.60;99.90
13470;DHT22;6807;48.682;9.032;2022-11-06T15:37:45;8.60;99.90
13470;DHT22;6807;48.682;9.032;2022-11-06T15:40:23;8.40;99.90
13470;DHT22;6807;48.682;9.032;2022-11-06T15:42:50;8.40;99.90
13470;DHT22;6807;48.682;9.032;2022-11-06T15:45:22;8.30;99.90
13470;DHT22;6807;48.682;9.032;2022-11-06T15:47:54;8.20;99.90
13470;DHT22;6807;48.682;9.032;2022-11-06T15:50:25;8.20;99.90
13470;DHT22;6807;48.682;9.032;2022-11-06T15:52:52;8.60;99.90
13470;DHT22;6807;48.682;9.032;2022-11-06T15:55:27;8.00;99.90
13470;DHT22;6807;48.682;9.032;2022-11-06T15:58:05;8.00;99.90
13470;DHT22;6807;48.682;9.032;2022-11-06T16:00:33;8.50;99.90
13470;DHT22;6807;48.682;9.032;2022-11-06T16:03:05;8.00;99.90
13470;DHT22;6807;48.682;9.032;2022-11-06T16:05:34;8.50;99.90
13470;DHT22;6807;48.682;9.032;2022-11-06T16:08:04;7.90;99.90
13470;DHT22;6807;48.682;9.032;2022-11-06T16:10:32;7.90;99.90
13470;DHT22;6807;48.682;9.032;2022-11-06T16:13:01;8.70;99.90
13470;DHT22;6807;48.682;9.032;2022-11-06T16:15:48;7.90;99.90
13470;DHT22;6807;48.682;9.032;2022-11-06T16:18:22;7.80;99.90
13470;DHT22;6807;48.682;9.032;2022-11-06T16:20:56;7.90;99.90
13470;DHT22;6807;48.682;9.032;2022-11-06T16:23:30;7.80;99.90
13470;DHT22;6807;48.682;9.032;2022-11-06T16:26:01;7.80;99.90
13470;DHT22;6807;48.682;9.032;2022-11-06T16:28:29;7.90;99.90
13470;DHT22;6807;48.682;9.032;2022-11-06T16:31:05;7.80;99.90
13470;DHT22;6807;48.682;9.032;2022-11-06T16:33:32;8.30;99.90
13470;DHT22;6807;48.682;9.032;2022-11-06T16:36:08;8.00;99.90
13470;DHT22;6807;48.682;9.032;2022-11-06T16:38:37;7.80;99.90
13470;DHT22;6807;48.682;9.032;2022-11-06T16:41:04;8.00;99.90
13470;DHT22;6807;48.682;9.032;2022-11-06T16:43:31;7.70;99.90
13470;DHT22;6807;48.682;9.032;2022-11-06T16:46:00;8.20;99.90
13470;DHT22;6807;48.682;9.032;2022-11-06T16:48:35;7.80;99.90
13470;DHT22;6807;48.682;9.032;2022-11-06T16:51:12;7.90;99.90
13470;DHT22;6807;48.682;9.032;2022-11-06T16:53:52;7.90;99.90
13470;DHT22;6807;48.682;9.032;2022-11-06T16:56:24;8.00;99.90
13470;DHT22;6807;48.682;9.032;2022-11-06T16:58:59;8.00;99.90
13470;DHT22;6807;48.682;9.032;2022-11-06T17:01:27;8.00;99.90
13470;DHT22;6807;48.682;9.032;2022-11-06T17:04:02;8.00;99.90
13470;DHT22;6807;48.682;9.032;2022-11-06T17:06:31;7.90;99.90
13470;DHT22;6807;48.682;9.032;2022-11-06T17:09:01;8.00;99.90
13470;DHT22;6807;48.682;9.032;2022-11-06T17:11:29;8.70;99.90
13470;DHT22;6807;48.682;9.032;2022-11-06T17:13:56;8.00;99.90
13470;DHT22;6807;48.682;9.032;2022-11-06T17:16:24;8.40;99.90
13470;DHT22;6807;48.682;9.032;2022-11-06T17:18:51;8.00;99.90
13470;DHT22;6807;48.682;9.032;2022-11-06T17:21:21;7.90;99.90
13470;DHT22;6807;48.682;9.032;2022-11-06T17:23:50;7.90;99.90
13470;DHT22;6807;48.682;9.032;2022-11-06T17:26:20;7.90;99.90
13470;DHT22;6807;48.682;9.032;2022-11-06T17:28:48;7.90;99.90
13470;DHT22;6807;48.682;9.032;2022-11-06T17:31:17;8.20;99.90
13470;DHT22;6807;48.682;9.032;2022-11-06T17:33:44;7.90;99.90
13470;DHT22;6807;48.682;9.032;2022-11-06T17:36:16;7.90;99.90
13470;DHT22;6807;48.682;9.032;2022-11-06T17:38:44;7.90;99.90
13470;DHT22;6807;48.682;9.032;2022-11-06T17:41:12;7.80;99.90
13470;DHT22;6807;48.682;9.032;2022-11-06T17:43:54;7.80;99.90
13470;DHT22;6807;48.682;9.032;2022-11-06T17:46:21;7.80;99.90
13470;DHT22;6807;48.682;9.032;2022-11-06T17:48:47;8.30;99.90
13470;DHT22;6807;48.682;9.032;2022-11-06T17:51:14;8.00;99.90
13470;DHT22;6807;48.682;9.032;2022-11-06T17:53:58;8.20;99.90
13470;DHT22;6807;48.682;9.032;2022-11-06T17:56:27;8.00;99.90
13470;DHT22;6807;48.682;9.032;2022-11-06T17:58:54;8.10;99.90
13470;DHT22;6807;48.682;9.032;2022-11-06T18:01:21;8.10;99.90
13470;DHT22;6807;48.682;9.032;2022-11-06T18:03:48;8.20;99.90
13470;DHT22;6807;48.682;9.032;2022-11-06T18:06:16;8.10;99.90
13470;DHT22;6807;48.682;9.032;2022-11-06T18:08:43;8.70;99.90
13470;DHT22;6807;48.682;9.032;2022-11-06T18:11:10;8.10;99.90
13470;DHT22;6807;48.682;9.032;2022-11-06T18:13:38;9.10;99.90
13470;DHT22;6807;48.682;9.032;2022-11-06T18:16:13;8.60;99.90
13470;DHT22;6807;48.682;9.032;2022-11-06T18:18:41;8.10;99.90
13470;DHT22;6807;48.682;9.032;2022-11-06T18:21:08;8.00;99.90
13470;DHT22;6807;48.682;9.032;2022-11-06T18:23:35;8.10;99.90
13470;DHT22;6807;48.682;9.032;2022-11-06T18:26:02;8.00;99.90
13470;DHT22;6807;48.682;9.032;2022-11-06T18:28:29;8.00;99.90
13470;DHT22;6807;48.682;9.032;2022-11-06T18:30:59;8.00;99.90
13470;DHT22;6807;48.682;9.032;2022-11-06T18:33:27;8.20;99.90
13470;DHT22;6807;48.682;9.032;2022-11-06T18:35:58;8.30;99.90
13470;DHT22;6807;48.682;9.032;2022-11-06T18:38:25;8.00;99.90
13470;DHT22;6807;48.682;9.032;2022-11-06T18:40:52;8.00;99.90
13470;DHT22;6807;48.682;9.032;2022-11-06T18:43:20;8.10;99.90
13470;DHT22;6807;48.682;9.032;2022-11-06T18:45:47;8.10;99.90
13470;DHT22;6807;48.682;9.032;2022-11-06T18:48:17;8.70;99.90
13470;DHT22;6807;48.682;9.032;2022-11-06T18:50:44;8.00;99.90
13470;DHT22;6807;48.682;9.032;2022-11-06T18:53:11;8.00;99.90
13470;DHT22;6807;48.682;9.032;2022-11-06T18:55:44;8.50;99.90
13470;DHT22;6807;48.682;9.032;2022-11-06T18:58:11;8.20;99.90
13470;DHT22;6807;48.682;9.032;2022-11-06T19:00:38;8.40;99.90
13470;DHT22;6807;48.682;9.032;2022-11-06T19:03:05;8.10;99.90
13470;DHT22;6807;48.682;9.032;2022-11-06T19:05:33;8.00;99.90
13470;DHT22;6807;48.682;9.032;2022-11-06T19:08:00;8.80;99.90
13470;DHT22;6807;48.682;9.032;2022-11-06T19:10:28;8.00;99.90